Capt. Rodney Adams — WDH8249 — position and weather

sailwx.info

Track history (hours):
 
Tides and Currents Weather Stations Pressure Air Temp Water Temp Dewpoint Dewpoint Depression Visibility Wind Speed Wind Dir Waves Ship Positions

Capt. Rodney Adams

Owner: Blessey Enterprises, Inc., Harahan, LA. More information available from US FCC via Universal Licensing System and Coast Guard Vessel Documentation Center.

Last reported at 2017-Nov-19 18:20 UTC. Time now 2017-Nov-21 21:12 UTC.
Position N 29°51' W 091°56'.

Length 20 m.

Type: Other ship. MMSI: 367656160.

Date/timePositionNaut miles runAvg speedWind from/ knotsBaromVisibWave heightAir tempDewpointWater temp
2017-Nov-19 18:20N 29°51' W 091°56'2 5.1
2017-Nov-19 17:59N 29°50' W 091°58'3 5.3
2017-Nov-19 17:30N 29°49' W 092°01'3 5.4
2017-Nov-19 17:00N 29°49' W 092°04'3 5.4
2017-Nov-19 16:30N 29°48' W 092°07'2 5.0
2017-Nov-19 16:00N 29°47' W 092°09'2 4.4
2017-Nov-19 15:30N 29°47' W 092°12'2 4.2
2017-Nov-19 15:00N 29°48' W 092°14'0 0.3
2017-Nov-19 14:30N 29°48' W 092°14'3 5.4
2017-Nov-19 14:00N 29°49' W 092°17'2 5.0
2017-Nov-19 13:30N 29°50' W 092°20'37 4.7
2017-Nov-19 05:38N 29°56' W 093°02'1 5.3
2017-Nov-19 05:30N 29°56' W 093°03'3 5.2
2017-Nov-19 05:00N 29°56' W 093°06'2 4.8
2017-Nov-19 04:30N 29°56' W 093°09'2 4.4
2017-Nov-19 04:00N 29°57' W 093°11'2 4.0
2017-Nov-19 03:30N 29°59' W 093°12'2 3.9
2017-Nov-19 03:00N 30°00' W 093°14'1 2.6
2017-Nov-19 02:30N 30°01' W 093°14'1 2.2
2017-Nov-19 02:00N 30°02' W 093°15'2 3.3
2017-Nov-19 01:30N 30°04' W 093°16'2 3.3
2017-Nov-19 01:00N 30°05' W 093°17'1 1.5
2017-Nov-19 00:30N 30°05' W 093°18'1 1.7
2017-Nov-19 00:00N 30°06' W 093°18'0 0.0
2017-Nov-18 23:30N 30°06' W 093°18'0 0.0
2017-Nov-18 23:00N 30°06' W 093°18'0 0.1
2017-Nov-18 22:30N 30°06' W 093°18'0 0.0
2017-Nov-18 22:00N 30°06' W 093°18'0 0.1
2017-Nov-18 21:30N 30°06' W 093°18'0 0.0
2017-Nov-18 21:00N 30°06' W 093°18'0 0.0
2017-Nov-18 20:30N 30°06' W 093°18'0 0.0
2017-Nov-18 20:00N 30°06' W 093°18'0 0.0
2017-Nov-18 19:30N 30°06' W 093°18'0 0.0
2017-Nov-18 19:00N 30°06' W 093°18'0 0.0
2017-Nov-18 18:30N 30°06' W 093°18'0 0.0
2017-Nov-18 18:00N 30°06' W 093°18'0 0.0
2017-Nov-18 17:30N 30°06' W 093°18'0 0.0
2017-Nov-18 17:00N 30°06' W 093°18'0 0.0
2017-Nov-18 16:30N 30°06' W 093°18'0 0.0
2017-Nov-18 16:00N 30°06' W 093°18'0 0.0
2017-Nov-18 15:30N 30°06' W 093°18'0 0.1
2017-Nov-18 15:00N 30°06' W 093°18'0 0.1
2017-Nov-18 14:30N 30°06' W 093°18'0 0.0
2017-Nov-18 14:00N 30°06' W 093°18'0 0.0
2017-Nov-18 13:30N 30°06' W 093°18'0 0.0
2017-Nov-18 13:00N 30°06' W 093°18'0 0.0
2017-Nov-18 12:30N 30°06' W 093°18'0 0.0
2017-Nov-18 12:00N 30°06' W 093°18'0 0.0
2017-Nov-18 11:30N 30°06' W 093°18'0 0.0
2017-Nov-18 11:00N 30°06' W 093°18'0 0.0
2017-Nov-18 10:30N 30°06' W 093°18'0 0.0
2017-Nov-18 10:00N 30°06' W 093°18'0 0.7
2017-Nov-18 09:30N 30°06' W 093°19'3 5.8
2017-Nov-18 09:00N 30°04' W 093°21'2 4.9
2017-Nov-18 08:30N 30°04' W 093°24'3 5.6
2017-Nov-18 08:00N 30°04' W 093°27'3 5.7
2017-Nov-18 07:30N 30°04' W 093°30'3 5.6
2017-Nov-18 07:00N 30°04' W 093°33'3 5.6
2017-Nov-18 06:30N 30°04' W 093°37'3 6.3
2017-Nov-18 06:00N 30°04' W 093°40'71 4.9
2017-Nov-17 15:30N 29°30' W 094°52'4 8.4
2017-Nov-17 15:00N 29°33' W 094°55'4 7.9
2017-Nov-17 14:30N 29°37' W 094°57'4 8.1
2017-Nov-17 14:00N 29°41' W 094°59'4 7.0
2017-Nov-17 13:28N 29°44' W 095°01'1 2.9
2017-Nov-17 13:00N 29°44' W 095°03'0 0.0
2017-Nov-17 12:30N 29°44' W 095°03'0 0.2
2017-Nov-17 12:01N 29°44' W 095°03'0 0.1
2017-Nov-17 11:30N 29°44' W 095°03'0 0.0
2017-Nov-17 11:00N 29°44' W 095°03'0 0.0
2017-Nov-17 10:30N 29°44' W 095°03'0 0.0
2017-Nov-17 10:00N 29°44' W 095°03'0 0.0
2017-Nov-17 09:30N 29°44' W 095°03'0 0.0
2017-Nov-17 09:00N 29°44' W 095°03'0 0.0
2017-Nov-17 08:30N 29°44' W 095°03'0 0.0
2017-Nov-17 08:00N 29°44' W 095°03'0 0.0
2017-Nov-17 07:30N 29°44' W 095°03'0 0.0
2017-Nov-17 07:00N 29°44' W 095°03'0 0.0
2017-Nov-17 06:30N 29°44' W 095°03'0 0.0
2017-Nov-17 06:00N 29°44' W 095°03'0 0.0
2017-Nov-17 05:30N 29°44' W 095°03'0 0.0
2017-Nov-17 05:00N 29°44' W 095°03'0 0.0
2017-Nov-17 04:30N 29°44' W 095°03'0 0.0
2017-Nov-17 04:00N 29°44' W 095°03'0 0.0
2017-Nov-17 03:30N 29°44' W 095°03'0 0.0
2017-Nov-17 03:00N 29°44' W 095°03'0 0.0
2017-Nov-17 02:30N 29°44' W 095°03'0 0.0
2017-Nov-17 02:00N 29°44' W 095°03'0 0.0
2017-Nov-17 01:30N 29°44' W 095°03'0 0.0
2017-Nov-17 01:00N 29°44' W 095°03'0 0.0
2017-Nov-17 00:30N 29°44' W 095°03'0 0.0
2017-Nov-16 23:59N 29°44' W 095°03'0 0.0
2017-Nov-16 23:30N 29°44' W 095°03'0 0.0
2017-Nov-16 23:00N 29°44' W 095°03'0 0.0
2017-Nov-16 22:30N 29°44' W 095°03'0 0.0
2017-Nov-16 22:00N 29°44' W 095°03'0 0.0
2017-Nov-16 21:29N 29°44' W 095°03'0 0.0
2017-Nov-16 21:00N 29°44' W 095°03'0 0.0
2017-Nov-16 20:30N 29°44' W 095°03'0 0.0
2017-Nov-16 20:00N 29°44' W 095°03'0 0.0
2017-Nov-16 19:30N 29°44' W 095°03'0 0.0
2017-Nov-16 19:00N 29°44' W 095°03'0 0.0
2017-Nov-16 18:29N 29°44' W 095°03'0 0.0
2017-Nov-16 18:00N 29°44' W 095°03'0 0.0
2017-Nov-16 17:30N 29°44' W 095°03'0 0.0
2017-Nov-16 17:00N 29°44' W 095°03'4 2.3
2017-Nov-16 15:24N 29°47' W 095°05'0 0.1
2017-Nov-16 13:35N 29°47' W 095°05'0 0.0
2017-Nov-16 13:21N 29°47' W 095°05'0 0.0
2017-Nov-16 12:56N 29°47' W 095°05'0 0.0
2017-Nov-16 12:28N 29°47' W 095°05'0 0.0
2017-Nov-16 11:51N 29°47' W 095°05'0 0.0
2017-Nov-16 11:27N 29°47' W 095°05'0 0.0
2017-Nov-16 11:00N 29°47' W 095°05'0 0.0
2017-Nov-16 10:30N 29°47' W 095°05'0 0.0
2017-Nov-16 09:55N 29°47' W 095°05'0 0.0
2017-Nov-16 08:31N 29°47' W 095°05'0 0.0
2017-Nov-16 08:27N 29°47' W 095°05'0 0.0
2017-Nov-16 07:59N 29°47' W 095°05'0 0.0
2017-Nov-16 07:25N 29°47' W 095°05'0 0.0
2017-Nov-16 06:57N 29°47' W 095°05'0 0.0
2017-Nov-16 05:46N 29°47' W 095°05'0 0.0
2017-Nov-16 05:24N 29°47' W 095°05'0 0.1
2017-Nov-16 04:59N 29°47' W 095°05'0 0.2
2017-Nov-16 04:30N 29°47' W 095°05'0 0.5
2017-Nov-16 03:56N 29°47' W 095°04'0 0.1
2017-Nov-16 01:53N 29°47' W 095°05'0 0.0
2017-Nov-15 23:36N 29°47' W 095°05'0 0.0
2017-Nov-15 23:22N 29°47' W 095°05'0 0.1
2017-Nov-15 21:58N 29°47' W 095°05'0 0.0
2017-Nov-15 21:27N 29°47' W 095°05'0 0.2
2017-Nov-15 20:53N 29°47' W 095°05'0 0.1
2017-Nov-15 19:43N 29°47' W 095°04'1 0.4
2017-Nov-15 17:32N 29°46' W 095°05'0 4.7
2017-Nov-15 17:29N 29°46' W 095°05'4 5.9
2017-Nov-15 16:52N 29°44' W 095°08'3 6.9
2017-Nov-15 16:26N 29°45' W 095°11'3 6.8
2017-Nov-15 15:59N 29°43' W 095°14'2 4.8
2017-Nov-15 15:28N 29°44' W 095°17'1 1.5
2017-Nov-15 15:00N 29°45' W 095°18'0 0.3
2017-Nov-15 14:30N 29°45' W 095°17'0 0.0
2017-Nov-15 08:04N 29°45' W 095°18'0 0.0
2017-Nov-15 07:57N 29°45' W 095°18'0 0.0
2017-Nov-15 07:28N 29°45' W 095°18'0 0.0
2017-Nov-15 07:00N 29°45' W 095°18'0 0.0
2017-Nov-15 06:30N 29°45' W 095°18'0 0.0
2017-Nov-15 05:59N 29°45' W 095°18'0 0.0
2017-Nov-15 05:18N 29°45' W 095°18'0 0.0
2017-Nov-15 05:00N 29°45' W 095°18'0 0.0
2017-Nov-15 04:30N 29°45' W 095°18'0 0.0
2017-Nov-15 04:00N 29°45' W 095°18'0 0.0
2017-Nov-15 03:30N 29°45' W 095°18'0 0.1
2017-Nov-15 03:00N 29°45' W 095°18'0 0.0
2017-Nov-14 12:10N 29°45' W 095°18'0 0.0
2017-Nov-14 11:39N 29°45' W 095°18'0 0.0
2017-Nov-14 11:29N 29°45' W 095°18'0 0.0
2017-Nov-14 10:53N 29°45' W 095°18'0 0.0
2017-Nov-14 10:10N 29°45' W 095°18'0 0.0
2017-Nov-14 09:40N 29°45' W 095°18'0 0.0
2017-Nov-14 09:28N 29°45' W 095°18'0 0.1
2017-Nov-14 09:00N 29°45' W 095°18'0 0.6
2017-Nov-14 08:30N 29°45' W 095°17'0 0.4
2017-Nov-14 08:00N 29°45' W 095°17'3 5.2
2017-Nov-14 07:30N 29°43' W 095°15'3 6.7
2017-Nov-14 06:59N 29°45' W 095°11'4 7.1
2017-Nov-14 06:29N 29°44' W 095°07'3 6.0
2017-Nov-14 06:00N 29°45' W 095°04'3 6.7
2017-Nov-14 05:30N 29°43' W 095°01'3 6.8
2017-Nov-14 05:00N 29°40' W 094°59'4 8.0
2017-Nov-14 04:30N 29°37' W 094°57'4 7.9
2017-Nov-14 04:00N 29°33' W 094°55'4 7.5
2017-Nov-14 03:30N 29°30' W 094°52'132 3.9
2017-Nov-12 18:01N 29°52' W 092°23'0 4.9
2017-Nov-12 17:59N 29°52' W 092°23'2 4.2
2017-Nov-12 17:28N 29°51' W 092°21'2 4.7
2017-Nov-12 17:00N 29°50' W 092°18'2 4.8
2017-Nov-12 16:30N 29°49' W 092°16'2 3.7
2017-Nov-12 16:00N 29°48' W 092°14'2 4.2
2017-Nov-12 15:30N 29°47' W 092°12'1 1.7
2017-Nov-12 15:00N 29°47' W 092°11'0 0.5
2017-Nov-12 14:28N 29°47' W 092°11'0 0.0
2017-Nov-12 13:56N 29°47' W 092°11'0 0.0
2017-Nov-12 13:28N 29°47' W 092°11'0 0.9
2017-Nov-12 13:00N 29°47' W 092°10'2 3.2
2017-Nov-12 12:30N 29°47' W 092°08'3 5.3
2017-Nov-12 11:54N 29°48' W 092°05'6 5.1
2017-Nov-12 10:39N 29°50' W 091°58'54 4.1
2017-Nov-11 21:34N 29°36' W 090°58'0 5.2
2017-Nov-11 21:30N 29°35' W 090°58'3 5.0
2017-Nov-11 20:56N 29°34' W 090°55'3 5.3
2017-Nov-11 20:17N 29°32' W 090°52'2 5.4
2017-Nov-11 20:00N 29°32' W 090°50'3 5.4
2017-Nov-11 19:30N 29°32' W 090°47'2 4.4
2017-Nov-11 19:00N 29°34' W 090°45'2 3.6
2017-Nov-11 18:30N 29°34' W 090°43'2 3.4
2017-Nov-11 18:00N 29°36' W 090°43'1 2.4
2017-Nov-11 17:30N 29°37' W 090°42'0 0.1
2017-Nov-11 17:00N 29°37' W 090°42'0 0.0
2017-Nov-11 16:30N 29°37' W 090°42'1 2.3
2017-Nov-11 16:00N 29°36' W 090°40'2 4.9
2017-Nov-11 15:30N 29°35' W 090°38'2 4.5
2017-Nov-11 15:00N 29°35' W 090°35'2 4.8
2017-Nov-11 14:30N 29°34' W 090°33'3 5.0
2017-Nov-11 13:59N 29°34' W 090°30'  
Track history (hours):
 
Tides and Currents Weather Stations Pressure Air Temp Water Temp Dewpoint Dewpoint Depression Visibility Wind Speed Wind Dir Waves Ship Positions

Capt. Rodney Adams

Owner: Blessey Enterprises, Inc., Harahan, LA. More information available from US FCC via Universal Licensing System and Coast Guard Vessel Documentation Center.

Last reported at 2017-Nov-19 18:20 UTC. Time now 2017-Nov-21 21:12 UTC.
Position N 29°51' W 091°56'.

Length 20 m.

Type: Other ship. MMSI: 367656160.

Date/timePositionNaut miles runAvg speedWind from/ knotsBaromVisibWave heightAir tempDewpointWater temp
2017-Nov-19 18:20N 29°51' W 091°56'2 5.1
2017-Nov-19 17:59N 29°50' W 091°58'3 5.3
2017-Nov-19 17:30N 29°49' W 092°01'3 5.4
2017-Nov-19 17:00N 29°49' W 092°04'3 5.4
2017-Nov-19 16:30N 29°48' W 092°07'2 5.0
2017-Nov-19 16:00N 29°47' W 092°09'2 4.4
2017-Nov-19 15:30N 29°47' W 092°12'2 4.2
2017-Nov-19 15:00N 29°48' W 092°14'0 0.3
2017-Nov-19 14:30N 29°48' W 092°14'3 5.4
2017-Nov-19 14:00N 29°49' W 092°17'2 5.0
2017-Nov-19 13:30N 29°50' W 092°20'37 4.7
2017-Nov-19 05:38N 29°56' W 093°02'1 5.3
2017-Nov-19 05:30N 29°56' W 093°03'3 5.2
2017-Nov-19 05:00N 29°56' W 093°06'2 4.8
2017-Nov-19 04:30N 29°56' W 093°09'2 4.4
2017-Nov-19 04:00N 29°57' W 093°11'2 4.0
2017-Nov-19 03:30N 29°59' W 093°12'2 3.9
2017-Nov-19 03:00N 30°00' W 093°14'1 2.6
2017-Nov-19 02:30N 30°01' W 093°14'1 2.2
2017-Nov-19 02:00N 30°02' W 093°15'2 3.3
2017-Nov-19 01:30N 30°04' W 093°16'2 3.3
2017-Nov-19 01:00N 30°05' W 093°17'1 1.5
2017-Nov-19 00:30N 30°05' W 093°18'1 1.7
2017-Nov-19 00:00N 30°06' W 093°18'0 0.0
2017-Nov-18 23:30N 30°06' W 093°18'0 0.0
2017-Nov-18 23:00N 30°06' W 093°18'0 0.1
2017-Nov-18 22:30N 30°06' W 093°18'0 0.0
2017-Nov-18 22:00N 30°06' W 093°18'0 0.1
2017-Nov-18 21:30N 30°06' W 093°18'0 0.0
2017-Nov-18 21:00N 30°06' W 093°18'0 0.0
2017-Nov-18 20:30N 30°06' W 093°18'0 0.0
2017-Nov-18 20:00N 30°06' W 093°18'0 0.0
2017-Nov-18 19:30N 30°06' W 093°18'0 0.0
2017-Nov-18 19:00N 30°06' W 093°18'0 0.0
2017-Nov-18 18:30N 30°06' W 093°18'0 0.0
2017-Nov-18 18:00N 30°06' W 093°18'0 0.0
2017-Nov-18 17:30N 30°06' W 093°18'0 0.0
2017-Nov-18 17:00N 30°06' W 093°18'0 0.0
2017-Nov-18 16:30N 30°06' W 093°18'0 0.0
2017-Nov-18 16:00N 30°06' W 093°18'0 0.0
2017-Nov-18 15:30N 30°06' W 093°18'0 0.1
2017-Nov-18 15:00N 30°06' W 093°18'0 0.1
2017-Nov-18 14:30N 30°06' W 093°18'0 0.0
2017-Nov-18 14:00N 30°06' W 093°18'0 0.0
2017-Nov-18 13:30N 30°06' W 093°18'0 0.0
2017-Nov-18 13:00N 30°06' W 093°18'0 0.0
2017-Nov-18 12:30N 30°06' W 093°18'0 0.0
2017-Nov-18 12:00N 30°06' W 093°18'0 0.0
2017-Nov-18 11:30N 30°06' W 093°18'0 0.0
2017-Nov-18 11:00N 30°06' W 093°18'0 0.0
2017-Nov-18 10:30N 30°06' W 093°18'0 0.0
2017-Nov-18 10:00N 30°06' W 093°18'0 0.7
2017-Nov-18 09:30N 30°06' W 093°19'3 5.8
2017-Nov-18 09:00N 30°04' W 093°21'2 4.9
2017-Nov-18 08:30N 30°04' W 093°24'3 5.6
2017-Nov-18 08:00N 30°04' W 093°27'3 5.7
2017-Nov-18 07:30N 30°04' W 093°30'3 5.6
2017-Nov-18 07:00N 30°04' W 093°33'3 5.6
2017-Nov-18 06:30N 30°04' W 093°37'3 6.3
2017-Nov-18 06:00N 30°04' W 093°40'71 4.9
2017-Nov-17 15:30N 29°30' W 094°52'4 8.4
2017-Nov-17 15:00N 29°33' W 094°55'4 7.9
2017-Nov-17 14:30N 29°37' W 094°57'4 8.1
2017-Nov-17 14:00N 29°41' W 094°59'4 7.0
2017-Nov-17 13:28N 29°44' W 095°01'1 2.9
2017-Nov-17 13:00N 29°44' W 095°03'0 0.0
2017-Nov-17 12:30N 29°44' W 095°03'0 0.2
2017-Nov-17 12:01N 29°44' W 095°03'0 0.1
2017-Nov-17 11:30N 29°44' W 095°03'0 0.0
2017-Nov-17 11:00N 29°44' W 095°03'0 0.0
2017-Nov-17 10:30N 29°44' W 095°03'0 0.0
2017-Nov-17 10:00N 29°44' W 095°03'0 0.0
2017-Nov-17 09:30N 29°44' W 095°03'0 0.0
2017-Nov-17 09:00N 29°44' W 095°03'0 0.0
2017-Nov-17 08:30N 29°44' W 095°03'0 0.0
2017-Nov-17 08:00N 29°44' W 095°03'0 0.0
2017-Nov-17 07:30N 29°44' W 095°03'0 0.0
2017-Nov-17 07:00N 29°44' W 095°03'0 0.0
2017-Nov-17 06:30N 29°44' W 095°03'0 0.0
2017-Nov-17 06:00N 29°44' W 095°03'0 0.0
2017-Nov-17 05:30N 29°44' W 095°03'0 0.0
2017-Nov-17 05:00N 29°44' W 095°03'0 0.0
2017-Nov-17 04:30N 29°44' W 095°03'0 0.0
2017-Nov-17 04:00N 29°44' W 095°03'0 0.0
2017-Nov-17 03:30N 29°44' W 095°03'0 0.0
2017-Nov-17 03:00N 29°44' W 095°03'0 0.0
2017-Nov-17 02:30N 29°44' W 095°03'0 0.0
2017-Nov-17 02:00N 29°44' W 095°03'0 0.0
2017-Nov-17 01:30N 29°44' W 095°03'0 0.0
2017-Nov-17 01:00N 29°44' W 095°03'0 0.0
2017-Nov-17 00:30N 29°44' W 095°03'0 0.0
2017-Nov-16 23:59N 29°44' W 095°03'0 0.0
2017-Nov-16 23:30N 29°44' W 095°03'0 0.0
2017-Nov-16 23:00N 29°44' W 095°03'0 0.0
2017-Nov-16 22:30N 29°44' W 095°03'0 0.0
2017-Nov-16 22:00N 29°44' W 095°03'0 0.0
2017-Nov-16 21:29N 29°44' W 095°03'0 0.0
2017-Nov-16 21:00N 29°44' W 095°03'0 0.0
2017-Nov-16 20:30N 29°44' W 095°03'0 0.0
2017-Nov-16 20:00N 29°44' W 095°03'0 0.0
2017-Nov-16 19:30N 29°44' W 095°03'0 0.0
2017-Nov-16 19:00N 29°44' W 095°03'0 0.0
2017-Nov-16 18:29N 29°44' W 095°03'0 0.0
2017-Nov-16 18:00N 29°44' W 095°03'0 0.0
2017-Nov-16 17:30N 29°44' W 095°03'0 0.0
2017-Nov-16 17:00N 29°44' W 095°03'4 2.3
2017-Nov-16 15:24N 29°47' W 095°05'0 0.1
2017-Nov-16 13:35N 29°47' W 095°05'0 0.0
2017-Nov-16 13:21N 29°47' W 095°05'0 0.0
2017-Nov-16 12:56N 29°47' W 095°05'0 0.0
2017-Nov-16 12:28N 29°47' W 095°05'0 0.0
2017-Nov-16 11:51N 29°47' W 095°05'0 0.0
2017-Nov-16 11:27N 29°47' W 095°05'0 0.0
2017-Nov-16 11:00N 29°47' W 095°05'0 0.0
2017-Nov-16 10:30N 29°47' W 095°05'0 0.0
2017-Nov-16 09:55N 29°47' W 095°05'0 0.0
2017-Nov-16 08:31N 29°47' W 095°05'0 0.0
2017-Nov-16 08:27N 29°47' W 095°05'0 0.0
2017-Nov-16 07:59N 29°47' W 095°05'0 0.0
2017-Nov-16 07:25N 29°47' W 095°05'0 0.0
2017-Nov-16 06:57N 29°47' W 095°05'0 0.0
2017-Nov-16 05:46N 29°47' W 095°05'0 0.0
2017-Nov-16 05:24N 29°47' W 095°05'0 0.1
2017-Nov-16 04:59N 29°47' W 095°05'0 0.2
2017-Nov-16 04:30N 29°47' W 095°05'0 0.5
2017-Nov-16 03:56N 29°47' W 095°04'0 0.1
2017-Nov-16 01:53N 29°47' W 095°05'0 0.0
2017-Nov-15 23:36N 29°47' W 095°05'0 0.0
2017-Nov-15 23:22N 29°47' W 095°05'0 0.1
2017-Nov-15 21:58N 29°47' W 095°05'0 0.0
2017-Nov-15 21:27N 29°47' W 095°05'0 0.2
2017-Nov-15 20:53N 29°47' W 095°05'0 0.1
2017-Nov-15 19:43N 29°47' W 095°04'1 0.4
2017-Nov-15 17:32N 29°46' W 095°05'0 4.7
2017-Nov-15 17:29N 29°46' W 095°05'4 5.9
2017-Nov-15 16:52N 29°44' W 095°08'3 6.9
2017-Nov-15 16:26N 29°45' W 095°11'3 6.8
2017-Nov-15 15:59N 29°43' W 095°14'2 4.8
2017-Nov-15 15:28N 29°44' W 095°17'1 1.5
2017-Nov-15 15:00N 29°45' W 095°18'0 0.3
2017-Nov-15 14:30N 29°45' W 095°17'0 0.0
2017-Nov-15 08:04N 29°45' W 095°18'0 0.0
2017-Nov-15 07:57N 29°45' W 095°18'0 0.0
2017-Nov-15 07:28N 29°45' W 095°18'0 0.0
2017-Nov-15 07:00N 29°45' W 095°18'0 0.0
2017-Nov-15 06:30N 29°45' W 095°18'0 0.0
2017-Nov-15 05:59N 29°45' W 095°18'0 0.0
2017-Nov-15 05:18N 29°45' W 095°18'0 0.0
2017-Nov-15 05:00N 29°45' W 095°18'0 0.0
2017-Nov-15 04:30N 29°45' W 095°18'0 0.0
2017-Nov-15 04:00N 29°45' W 095°18'0 0.0
2017-Nov-15 03:30N 29°45' W 095°18'0 0.1
2017-Nov-15 03:00N 29°45' W 095°18'0 0.0
2017-Nov-14 12:10N 29°45' W 095°18'0 0.0
2017-Nov-14 11:39N 29°45' W 095°18'0 0.0
2017-Nov-14 11:29N 29°45' W 095°18'0 0.0
2017-Nov-14 10:53N 29°45' W 095°18'0 0.0
2017-Nov-14 10:10N 29°45' W 095°18'0 0.0
2017-Nov-14 09:40N 29°45' W 095°18'0 0.0
2017-Nov-14 09:28N 29°45' W 095°18'0 0.1
2017-Nov-14 09:00N 29°45' W 095°18'0 0.6
2017-Nov-14 08:30N 29°45' W 095°17'0 0.4
2017-Nov-14 08:00N 29°45' W 095°17'3 5.2
2017-Nov-14 07:30N 29°43' W 095°15'3 6.7
2017-Nov-14 06:59N 29°45' W 095°11'4 7.1
2017-Nov-14 06:29N 29°44' W 095°07'3 6.0
2017-Nov-14 06:00N 29°45' W 095°04'3 6.7
2017-Nov-14 05:30N 29°43' W 095°01'3 6.8
2017-Nov-14 05:00N 29°40' W 094°59'4 8.0
2017-Nov-14 04:30N 29°37' W 094°57'4 7.9
2017-Nov-14 04:00N 29°33' W 094°55'4 7.5
2017-Nov-14 03:30N 29°30' W 094°52'132 3.9
2017-Nov-12 18:01N 29°52' W 092°23'0 4.9
2017-Nov-12 17:59N 29°52' W 092°23'2 4.2
2017-Nov-12 17:28N 29°51' W 092°21'2 4.7
2017-Nov-12 17:00N 29°50' W 092°18'2 4.8
2017-Nov-12 16:30N 29°49' W 092°16'2 3.7
2017-Nov-12 16:00N 29°48' W 092°14'2 4.2
2017-Nov-12 15:30N 29°47' W 092°12'1 1.7
2017-Nov-12 15:00N 29°47' W 092°11'0 0.5
2017-Nov-12 14:28N 29°47' W 092°11'0 0.0
2017-Nov-12 13:56N 29°47' W 092°11'0 0.0
2017-Nov-12 13:28N 29°47' W 092°11'0 0.9
2017-Nov-12 13:00N 29°47' W 092°10'2 3.2
2017-Nov-12 12:30N 29°47' W 092°08'3 5.3
2017-Nov-12 11:54N 29°48' W 092°05'6 5.1
2017-Nov-12 10:39N 29°50' W 091°58'54 4.1
2017-Nov-11 21:34N 29°36' W 090°58'0 5.2
2017-Nov-11 21:30N 29°35' W 090°58'3 5.0
2017-Nov-11 20:56N 29°34' W 090°55'3 5.3
2017-Nov-11 20:17N 29°32' W 090°52'2 5.4
2017-Nov-11 20:00N 29°32' W 090°50'3 5.4
2017-Nov-11 19:30N 29°32' W 090°47'2 4.4
2017-Nov-11 19:00N 29°34' W 090°45'2 3.6
2017-Nov-11 18:30N 29°34' W 090°43'2 3.4
2017-Nov-11 18:00N 29°36' W 090°43'1 2.4
2017-Nov-11 17:30N 29°37' W 090°42'0 0.1
2017-Nov-11 17:00N 29°37' W 090°42'0 0.0
2017-Nov-11 16:30N 29°37' W 090°42'1 2.3
2017-Nov-11 16:00N 29°36' W 090°40'2 4.9
2017-Nov-11 15:30N 29°35' W 090°38'2 4.5
2017-Nov-11 15:00N 29°35' W 090°35'2 4.8
2017-Nov-11 14:30N 29°34' W 090°33'3 5.0
2017-Nov-11 13:59N 29°34' W 090°30'  

Dump ship's entire track history